Time;durP1;ratioP1;P1;durP2;ratioP2;P2;SDS_P1;SDS_P2;PMS_P1;PMS_P2;Temp;Humidity;BMP_temperature;BMP_pressure;BME280_temperature;BME280_humidity;BME280_pressure;Samples;Min_cycle;Max_cycle;Signal;HPM_P1;HPM_P2
2021/12/05 00:20:47;;;;;;;0.40;0.40;;;4.30;99.90;3.70;99595.00;;;;5089346;28;20240;-79
2021/12/05 00:23:21;;;;;;;0.60;0.60;;;4.30;99.90;3.80;99600.00;;;;5074294;28;20211;-78
2021/12/05 00:25:57;;;;;;;0.50;0.50;;;4.30;99.90;3.90;99602.00;;;;5090474;28;20185;-77
2021/12/05 00:31:42;;;;;;;0.40;0.40;;;4.40;99.90;3.90;99604.00;;;;5089776;28;20188;-76
2021/12/05 00:47:54;;;;;;;0.37;0.37;;;4.50;99.90;4.20;99596.00;;;;5089844;28;20181;-76
2021/12/05 00:50:58;;;;;;;0.50;0.50;;;4.50;99.90;4.20;99600.00;;;;5087261;28;20191;-77
2021/12/05 01:01:48;;;;;;;0.40;0.40;;;4.80;99.90;4.70;99599.00;;;;5089617;28;20182;-76
2021/12/05 01:17:43;;;;;;;0.30;0.30;;;5.10;99.90;5.10;99609.00;;;;5086966;28;20212;-75
2021/12/05 01:20:21;;;;;;;0.83;0.83;;;5.10;99.90;5.20;99594.00;;;;5089878;28;20182;-76
2021/12/05 01:23:01;;;;;;;0.50;0.50;;;5.20;99.90;5.10;99594.00;;;;5073473;28;20167;-76
2021/12/05 01:25:53;;;;;;;1.13;0.63;;;5.30;99.90;4.80;99602.00;;;;5072497;28;20528;-76
2021/12/05 01:34:20;;;;;;;0.53;0.53;;;5.10;99.90;4.60;99600.00;;;;5050421;28;20231;-76
2021/12/05 01:37:10;;;;;;;0.40;0.40;;;5.10;99.90;4.80;99584.00;;;;5087166;28;20170;-77
2021/12/05 01:40:08;;;;;;;0.40;0.40;;;5.10;99.90;5.00;99579.00;;;;5086655;28;20671;-77
2021/12/05 01:54:18;;;;;;;1.00;1.00;;;5.20;99.90;5.00;99590.00;;;;5085306;28;20216;-78
2021/12/05 01:59:43;;;;;;;0.90;0.90;;;5.10;99.90;5.30;99605.00;;;;5087260;28;20574;-78
2021/12/05 02:16:21;;;;;;;0.53;0.53;;;5.10;99.90;5.00;99577.00;;;;5085991;28;20193;-76
2021/12/05 02:31:00;;;;;;;0.80;0.43;;;5.10;99.90;4.70;99582.00;;;;5086639;28;20188;-74
2021/12/05 02:41:09;;;;;;;0.30;0.30;;;5.10;99.90;4.80;99545.00;;;;5071915;28;20177;-73
2021/12/05 02:43:49;;;;;;;0.40;0.40;;;5.10;99.90;5.00;99572.00;;;;5071777;28;20207;-73
2021/12/05 02:46:25;;;;;;;2.00;0.60;;;5.20;99.90;4.70;99567.00;;;;5087962;28;20189;-73
2021/12/05 02:49:04;;;;;;;0.50;0.50;;;5.10;99.90;4.50;99568.00;;;;5089166;28;20181;-73
2021/12/05 02:51:32;;;;;;;0.40;0.40;;;5.00;99.90;4.60;99573.00;;;;5087479;28;20205;-73
2021/12/05 02:54:16;;;;;;;0.83;0.77;;;5.00;99.90;4.80;99567.00;;;;5070856;28;20536;-74
2021/12/05 02:56:50;;;;;;;0.30;0.30;;;5.10;99.90;4.80;99565.00;;;;5086824;28;20189;-75
2021/12/05 03:00:08;;;;;;;0.40;0.40;;;5.10;99.90;5.30;99519.00;;;;5088264;28;20183;-75
2021/12/05 03:02:13;;;;;;;0.73;0.73;;;5.40;99.90;5.00;99554.00;;;;5074858;28;20207;-76
2021/12/05 03:04:46;;;;;;;0.40;0.40;;;5.30;99.90;5.00;99556.00;;;;5087849;28;20174;-76
2021/12/05 03:07:27;;;;;;;1.37;0.80;;;5.30;99.90;5.00;99554.00;;;;5088608;28;20176;-76
2021/12/05 03:09:59;;;;;;;0.63;0.63;;;5.20;99.90;4.70;99564.00;;;;5088579;28;20184;-76
2021/12/05 03:12:35;;;;;;;0.47;0.47;;;5.20;99.90;4.80;99566.00;;;;5069775;28;20223;-78
2021/12/05 03:15:06;;;;;;;0.50;0.50;;;5.20;99.90;4.80;99561.00;;;;5086439;28;20158;-78
2021/12/05 03:17:36;;;;;;;0.30;0.30;;;5.20;99.90;4.80;99557.00;;;;5087393;28;20339;-78
2021/12/05 03:20:09;;;;;;;0.60;0.60;;;5.20;99.90;4.90;99494.00;;;;5091976;28;20182;-77
2021/12/05 03:22:45;;;;;;;0.50;0.50;;;5.20;99.90;4.60;99525.00;;;;5091579;28;20193;-78
2021/12/05 03:25:14;;;;;;;1.87;1.80;;;5.10;99.90;4.80;99532.00;;;;5074602;28;20170;-78
2021/12/05 03:27:41;;;;;;;0.40;0.40;;;5.10;99.90;4.90;99543.00;;;;5091548;28;20645;-78
2021/12/05 03:30:11;;;;;;;1.80;1.17;;;5.10;99.90;4.70;99496.00;;;;5092423;28;20580;-78
2021/12/05 03:32:38;;;;;;;0.47;0.47;;;5.10;99.90;5.10;99499.00;;;;5074323;28;20220;-78
2021/12/05 03:35:10;;;;;;;0.83;0.83;;;5.20;99.90;4.90;99537.00;;;;5091604;28;20179;-77
2021/12/05 03:37:40;;;;;;;8.07;0.77;;;5.20;99.90;5.20;99509.00;;;;5092039;28;20181;-76
2021/12/05 03:40:08;;;;;;;0.40;0.40;;;5.30;99.90;5.00;99505.00;;;;5091360;28;20236;-76
2021/12/05 03:42:42;;;;;;;0.40;0.40;;;5.20;99.90;4.60;99539.00;;;;5091461;28;20176;-76
2021/12/05 03:45:23;;;;;;;0.30;0.30;;;5.10;99.90;4.80;99551.00;;;;5091683;28;20173;-75
2021/12/05 03:47:58;;;;;;;0.80;0.80;;;5.10;99.90;4.80;99565.00;;;;5057493;28;20173;-76
2021/12/05 03:50:27;;;;;;;0.30;0.30;;;5.10;99.90;4.50;99547.00;;;;5090794;28;20198;-76
2021/12/05 03:52:57;;;;;;;0.73;0.73;;;5.00;99.90;4.60;99546.00;;;;5075525;28;20612;-76
2021/12/05 03:55:23;;;;;;;1.37;1.20;;;5.00;99.90;4.60;99552.00;;;;5091442;28;20189;-76
2021/12/05 03:57:52;;;;;;;0.50;0.50;;;5.00;99.90;4.50;99557.00;;;;5091341;28;20162;-76
2021/12/05 04:00:28;;;;;;;0.53;0.53;;;4.90;99.90;4.60;99553.00;;;;5091393;28;20179;-77
2021/12/05 04:03:06;;;;;;;0.67;0.67;;;5.00;99.90;4.70;99567.00;;;;5091070;28;20189;-77
2021/12/05 04:05:35;;;;;;;0.40;0.40;;;4.90;99.90;5.00;99555.00;;;;5057659;28;20173;-77
2021/12/05 04:08:13;;;;;;;0.50;0.50;;;5.10;99.90;4.90;99554.00;;;;5091561;28;20173;-77
2021/12/05 04:10:44;;;;;;;0.40;0.40;;;5.10;99.90;4.70;99502.00;;;;5090551;28;20207;-78
2021/12/05 04:13:10;;;;;;;0.47;0.47;;;5.00;99.90;4.70;99567.00;;;;5091203;28;20230;-80
2021/12/05 04:15:37;;;;;;;0.30;0.30;;;5.00;99.90;4.70;99567.00;;;;5091520;28;20189;-81
2021/12/05 04:18:03;;;;;;;0.40;0.40;;;5.00;99.90;4.90;99552.00;;;;5091176;28;20178;-82
2021/12/05 04:20:33;;;;;;;0.40;0.40;;;5.00;99.90;4.60;99572.00;;;;5091128;28;20200;-83
2021/12/05 04:23:08;;;;;;;1.27;1.27;;;5.00;99.90;5.00;99543.00;;;;5090558;28;20212;-85
2021/12/05 04:25:37;;;;;;;0.30;0.30;;;5.00;99.90;5.10;99549.00;;;;5090979;28;20177;-80
2021/12/05 04:28:12;;;;;;;0.50;0.50;;;5.20;99.90;5.00;99564.00;;;;5073915;28;20637;-79
2021/12/05 04:30:46;;;;;;;0.40;0.40;;;5.20;99.90;4.90;99556.00;;;;5090206;28;20176;-80
2021/12/05 04:33:15;;;;;;;0.90;0.90;;;5.10;99.90;4.70;99552.00;;;;5090450;28;20255;-81
2021/12/05 04:35:45;;;;;;;0.40;0.40;;;5.00;99.90;4.70;99533.00;;;;5089995;28;20200;-80
2021/12/05 04:38:13;;;;;;;0.40;0.40;;;5.00;99.90;4.60;99536.00;;;;5090559;28;20630;-78
2021/12/05 04:40:44;;;;;;;0.53;0.53;;;5.00;99.90;4.50;99497.00;;;;5089859;28;20186;-79
2021/12/05 04:43:16;;;;;;;0.40;0.40;;;4.90;99.90;4.60;99539.00;;;;5090285;28;20211;-79
2021/12/05 04:45:46;;;;;;;0.30;0.30;;;4.90;99.90;4.50;99564.00;;;;5090195;28;20710;-80
2021/12/05 04:48:16;;;;;;;0.33;0.33;;;4.90;99.90;4.40;99543.00;;;;5090408;28;20536;-80
2021/12/05 04:50:50;;;;;;;0.40;0.40;;;4.80;99.90;4.40;99566.00;;;;5090353;28;20586;-80
2021/12/05 04:53:19;;;;;;;0.47;0.47;;;4.80;99.90;4.40;99565.00;;;;5072703;28;20210;-80
2021/12/05 04:55:52;;;;;;;0.40;0.40;;;4.80;99.90;4.40;99549.00;;;;5073146;28;20185;-78
2021/12/05 04:58:23;;;;;;;0.50;0.50;;;4.80;99.90;4.30;99570.00;;;;5089655;27;20197;-77
2021/12/05 05:01:00;;;;;;;0.50;0.50;;;4.80;99.90;4.50;99569.00;;;;5088966;28;20174;-78
2021/12/05 05:03:34;;;;;;;0.37;0.37;;;4.80;99.90;4.90;99574.00;;;;5089743;28;20185;-78
2021/12/05 05:06:13;;;;;;;0.30;0.30;;;5.00;99.90;4.70;99571.00;;;;5089368;28;20171;-78
2021/12/05 05:08:43;;;;;;;0.40;0.40;;;4.90;99.90;5.20;99575.00;;;;5073988;28;20174;-77
2021/12/05 05:11:13;;;;;;;0.40;0.40;;;5.10;99.90;5.20;99581.00;;;;5073344;28;20185;-77
2021/12/05 05:13:46;;;;;;;3.73;1.00;;;5.40;99.90;5.10;99556.00;;;;5089644;28;20200;-77
2021/12/05 05:16:16;;;;;;;0.70;0.70;;;5.30;99.90;4.90;99555.00;;;;5089492;28;20171;-78
2021/12/05 05:18:57;;;;;;;0.40;0.40;;;5.20;99.90;4.90;99577.00;;;;5090178;28;20658;-76
2021/12/05 05:21:41;;;;;;;0.30;0.30;;;5.20;99.90;5.00;99572.00;;;;5090143;28;20170;-77
2021/12/05 05:46:39;;;;;;;1.07;1.07;;;5.30;99.90;5.30;99586.00;;;;5088857;28;20173;-76
2021/12/05 05:49:15;;;;;;;0.40;0.40;;;5.40;99.90;5.30;99607.00;;;;5072409;28;20219;-76
2021/12/05 05:51:44;;;;;;;0.40;0.40;;;5.30;99.90;5.30;99557.00;;;;5087256;28;20227;-76
2021/12/05 05:54:13;;;;;;;0.30;0.30;;;5.30;99.90;5.40;99606.00;;;;5089653;28;20179;-76
2021/12/05 05:56:44;;;;;;;0.93;0.93;;;5.30;99.90;4.90;99595.00;;;;5089291;28;20189;-76
2021/12/05 06:03:18;;;;;;;0.77;0.77;;;5.20;99.90;5.00;99565.00;;;;5088291;28;20243;-76
2021/12/05 06:04:34;;;;;;;2.67;2.03;;;5.10;99.90;5.10;99596.00;;;;5085033;28;20201;-77
2021/12/05 06:07:03;;;;;;;0.73;0.73;;;5.20;99.90;5.50;99592.00;;;;5088442;28;20260;-79
2021/12/05 06:09:32;;;;;;;0.47;0.47;;;5.40;99.90;4.50;99616.00;;;;5088971;28;20262;-77
2021/12/05 06:11:57;;;;;;;2.40;2.30;;;5.00;99.90;4.60;99611.00;;;;5088828;28;20572;-77
2021/12/05 06:14:27;;;;;;;8.17;3.97;;;5.00;99.90;5.00;99618.00;;;;5073303;28;20181;-78
2021/12/05 06:16:56;;;;;;;2.93;2.73;;;5.10;99.90;5.60;99608.00;;;;5073017;28;20650;-76
2021/12/05 06:19:22;;;;;;;0.87;0.87;;;5.40;99.90;4.90;99609.00;;;;5071575;28;20553;-76
2021/12/05 06:21:54;;;;;;;0.57;0.57;;;5.20;99.90;4.80;99620.00;;;;5087487;28;20194;-76
2021/12/05 06:24:26;;;;;;;0.73;0.67;;;5.00;99.90;5.00;99589.00;;;;5088978;28;20170;-76
2021/12/05 06:26:55;;;;;;;0.40;0.40;;;5.10;99.90;5.20;99630.00;;;;5088758;28;20195;-77
2021/12/05 06:29:22;;;;;;;0.73;0.73;;;5.20;99.90;4.60;99634.00;;;;5088346;28;20716;-76
2021/12/05 06:37:50;;;;;;;0.50;0.50;;;5.00;99.90;5.00;99577.00;;;;5086257;28;20274;-76
2021/12/05 06:40:33;;;;;;;0.47;0.47;;;5.10;99.90;5.50;99624.00;;;;5086752;28;20161;-76
2021/12/05 06:45:56;;;;;;;0.70;0.70;;;5.30;99.90;5.20;99620.00;;;;5086379;28;20181;-76
2021/12/05 06:46:00;;;;;;;1.23;1.13;;;5.40;99.90;5.10;99634.00;;;;5085490;28;20193;-76
2021/12/05 06:48:31;;;;;;;1.80;1.30;;;5.30;99.90;5.20;99647.00;;;;5088747;28;20177;-76
2021/12/05 06:51:00;;;;;;;1.10;1.10;;;5.30;99.90;4.90;99633.00;;;;5088187;28;20189;-76
2021/12/05 06:53:26;;;;;;;0.93;0.93;;;5.30;99.90;4.70;99644.00;;;;5089058;28;20201;-76
2021/12/05 06:55:57;;;;;;;0.40;0.40;;;5.10;99.90;4.50;99593.00;;;;5092646;28;20174;-78
2021/12/05 06:58:26;;;;;;;0.40;0.40;;;4.90;99.90;5.20;99653.00;;;;5092842;28;20177;-76
2021/12/05 07:00:57;;;;;;;3.57;1.03;;;5.20;99.90;4.90;99655.00;;;;5092439;28;20192;-76
2021/12/05 07:03:31;;;;;;;1.00;1.00;;;5.30;99.90;5.10;99655.00;;;;5074591;28;20183;-76
2021/12/05 07:06:06;;;;;;;1.93;1.43;;;5.20;99.90;4.60;99639.00;;;;5092287;28;20542;-75
2021/12/05 07:08:41;;;;;;;0.93;0.93;;;5.00;99.90;4.40;99656.00;;;;5092393;28;20204;-75
2021/12/05 07:11:29;;;;;;;0.40;0.40;;;4.90;99.90;4.90;99662.00;;;;5059405;28;20185;-76
2021/12/05 07:21:50;;;;;;;0.80;0.80;;;5.00;99.90;4.90;99645.00;;;;5090517;28;20180;-83
2021/12/05 07:40:37;;;;;;;0.40;0.40;;;5.20;99.90;4.80;99676.00;;;;5089480;28;20192;-75
2021/12/05 07:43:08;;;;;;;0.83;0.83;;;5.00;99.90;4.40;99684.00;;;;5076079;28;20177;-75
2021/12/05 07:45:44;;;;;;;0.60;0.60;;;4.90;99.90;4.40;99678.00;;;;5074850;28;20171;-77
2021/12/05 07:48:20;;;;;;;0.50;0.50;;;4.70;99.90;4.20;99687.00;;;;5090902;28;20252;-75
2021/12/05 07:53:48;;;;;;;0.40;0.40;;;4.50;99.90;4.70;99698.00;;;;5091234;28;20202;-74
2021/12/05 07:56:27;;;;;;;0.50;0.50;;;4.80;99.90;4.90;99692.00;;;;5089316;28;20208;-77
2021/12/05 07:59:14;;;;;;;0.40;0.40;;;4.90;99.90;5.20;99705.00;;;;5089926;28;20234;-76
2021/12/05 08:16:17;;;;;;;0.50;0.50;;;4.90;99.90;5.00;99719.00;;;;5074520;28;20188;-76
2021/12/05 08:18:48;;;;;;;0.50;0.50;;;4.90;99.90;5.00;99664.00;;;;5074291;28;20524;-77
2021/12/05 08:21:16;;;;;;;0.50;0.50;;;5.10;99.90;5.10;99713.00;;;;5091227;28;20678;-76
2021/12/05 08:23:50;;;;;;;0.50;0.50;;;5.10;99.90;4.80;99714.00;;;;5073917;28;20247;-77
2021/12/05 08:26:31;;;;;;;0.50;0.50;;;5.00;99.90;4.90;99715.00;;;;5074494;28;20220;-77
2021/12/05 09:21:57;;;;;;;0.60;0.60;;;4.90;99.90;5.50;99799.00;;;;5074229;28;20193;-78
2021/12/05 09:30:28;;;;;;;0.50;0.50;;;4.90;99.90;5.40;99798.00;;;;5072280;28;20243;-77
2021/12/05 10:36:25;;;;;;;0.50;0.50;;;6.70;99.90;6.50;99894.00;;;;5130639;28;20551;-75
2021/12/05 10:39:10;;;;;;;0.50;0.50;;;6.80;99.90;6.60;99848.00;;;;5114700;28;20175;-75
2021/12/05 10:41:59;;;;;;;0.60;0.60;;;6.70;99.90;7.30;99860.00;;;;5130023;28;20182;-75
2021/12/05 10:44:44;;;;;;;0.80;0.80;;;7.10;99.90;6.00;99884.00;;;;5130681;28;20175;-74
2021/12/05 10:47:48;;;;;;;0.70;0.70;;;6.60;99.90;5.90;99900.00;;;;5129474;28;20607;-75
2021/12/05 10:51:14;;;;;;;0.50;0.50;;;6.30;99.90;5.90;99921.00;;;;5113561;28;20599;-75
2021/12/05 10:54:20;;;;;;;0.50;0.50;;;6.20;99.90;5.90;99923.00;;;;5022240;28;20744;-75
2021/12/05 10:56:59;;;;;;;0.53;0.53;;;6.10;99.90;6.80;99917.00;;;;5109571;28;20281;-76
2021/12/05 10:59:37;;;;;;;1.13;1.03;;;6.50;99.90;7.20;99927.00;;;;5131212;27;20526;-75
2021/12/05 11:02:30;;;;;;;1.70;1.63;;;6.80;99.90;6.10;99919.00;;;;5128587;28;20187;-75
2021/12/05 11:05:06;;;;;;;0.60;0.60;;;6.50;99.90;6.70;99925.00;;;;5130195;28;20266;-75
2021/12/05 11:07:48;;;;;;;0.60;0.60;;;6.60;99.90;6.90;99920.00;;;;5112434;28;20669;-75
2021/12/05 11:10:28;;;;;;;0.50;0.50;;;6.70;99.90;5.70;99921.00;;;;5129631;28;20642;-75
2021/12/05 11:13:01;;;;;;;0.50;0.50;;;6.30;99.90;5.50;99876.00;;;;5111785;28;20206;-75
2021/12/05 11:15:37;;;;;;;0.83;0.83;;;6.00;99.90;6.20;99917.00;;;;5112715;28;20272;-75
2021/12/05 11:18:17;;;;;;;1.70;1.60;;;6.30;99.90;5.80;99920.00;;;;5112341;28;20173;-75
2021/12/05 11:20:54;;;;;;;0.80;0.80;;;6.10;99.90;5.90;99928.00;;;;5112711;28;20259;-75
2021/12/05 11:23:29;;;;;;;3.07;2.83;;;6.10;99.90;6.10;99927.00;;;;5129393;28;20177;-75
2021/12/05 11:26:18;;;;;;;0.70;0.70;;;6.30;99.90;6.20;99925.00;;;;5129099;28;20173;-75
2021/12/05 11:28:58;;;;;;;0.50;0.50;;;6.30;99.90;6.70;99902.00;;;;5113011;28;20205;-74
2021/12/05 11:31:38;;;;;;;1.00;1.00;;;6.50;99.90;6.00;99934.00;;;;5108539;28;20224;-75
2021/12/05 11:34:27;;;;;;;0.40;0.40;;;6.40;99.90;6.40;99945.00;;;;5119456;28;20673;-72
2021/12/05 11:37:01;;;;;;;0.80;0.80;;;6.40;99.90;5.80;99937.00;;;;5129567;28;20231;-73
2021/12/05 11:39:40;;;;;;;0.90;0.90;;;6.20;99.90;5.50;99931.00;;;;5129313;28;20638;-73
2021/12/05 11:42:21;;;;;;;0.93;0.93;;;6.00;99.90;5.70;99950.00;;;;5112464;28;20197;-73
2021/12/05 11:45:04;;;;;;;0.90;0.90;;;5.90;99.90;6.20;99944.00;;;;5098025;28;20185;-72
2021/12/05 11:47:39;;;;;;;1.03;1.03;;;6.20;99.90;5.80;99940.00;;;;5115345;28;20195;-73
2021/12/05 11:50:19;;;;;;;1.23;1.13;;;6.20;99.90;6.30;99951.00;;;;5097923;28;20652;-73
2021/12/05 11:52:53;;;;;;;0.63;0.63;;;6.30;99.90;6.60;99944.00;;;;5114639;28;20198;-73
2021/12/05 11:55:31;;;;;;;0.53;0.53;;;6.60;99.90;6.50;99954.00;;;;5114694;28;20278;-73
2021/12/05 11:58:18;;;;;;;1.87;1.77;;;6.70;99.90;6.40;99955.00;;;;5098336;28;20176;-74
2021/12/05 12:00:55;;;;;;;0.50;0.50;;;6.70;99.90;6.20;99957.00;;;;5098227;28;20180;-74
2021/12/05 12:03:44;;;;;;;0.50;0.50;;;6.60;99.90;6.20;99954.00;;;;5115510;28;20562;-74
2021/12/05 12:06:23;;;;;;;0.70;0.70;;;6.50;99.90;6.30;99952.00;;;;5114783;28;20609;-73
2021/12/05 12:09:01;;;;;;;0.43;0.43;;;6.60;99.90;6.30;99949.00;;;;5097953;28;20247;-73
2021/12/05 12:11:35;;;;;;;0.50;0.50;;;6.50;99.90;6.20;99968.00;;;;5097822;28;20700;-73
2021/12/05 12:14:12;;;;;;;0.77;0.77;;;6.50;99.90;5.80;99957.00;;;;5114494;28;20190;-73
2021/12/05 12:16:51;;;;;;;0.50;0.50;;;6.20;99.90;6.20;99955.00;;;;5114031;28;20560;-73
2021/12/05 12:19:23;;;;;;;0.50;0.50;;;6.30;99.90;6.10;99966.00;;;;5097975;28;20186;-73
2021/12/05 12:22:03;;;;;;;1.37;1.27;;;6.40;99.90;5.80;99960.00;;;;5097116;28;20179;-73
2021/12/05 12:24:37;;;;;;;9.00;4.53;;;6.30;99.90;5.90;99947.00;;;;5098208;28;20206;-73
2021/12/05 12:27:09;;;;;;;1.07;1.07;;;6.40;99.90;6.50;99988.00;;;;5114346;28;20176;-73
2021/12/05 12:29:48;;;;;;;2.40;2.20;;;6.50;99.90;6.80;99984.00;;;;5114527;28;20182;-74
2021/12/05 12:32:30;;;;;;;0.50;0.50;;;6.90;99.90;6.40;99936.00;;;;5114640;28;20215;-74
2021/12/05 12:35:28;;;;;;;0.60;0.60;;;6.80;99.90;6.80;100001.00;;;;5097650;28;20688;-73
2021/12/05 12:38:14;;;;;;;1.00;1.00;;;6.70;99.90;6.40;99979.00;;;;5096890;28;20185;-74
2021/12/05 12:40:53;;;;;;;0.80;0.80;;;6.80;99.90;6.90;99962.00;;;;5114475;28;20177;-73
2021/12/05 12:43:42;;;;;;;1.00;1.00;;;6.90;99.90;6.10;100002.00;;;;5096896;28;20286;-73
2021/12/05 12:46:42;;;;;;;0.60;0.60;;;6.70;99.90;6.20;100003.00;;;;5113392;28;20210;-73
2021/12/05 12:49:53;;;;;;;1.00;1.00;;;6.50;99.90;5.60;99977.00;;;;5108150;28;20197;-73
2021/12/05 12:52:23;;;;;;;8.87;8.23;;;6.20;99.90;5.90;99945.00;;;;5097304;28;20202;-73
2021/12/05 12:55:01;;;;;;;0.50;0.50;;;6.10;99.90;5.50;100002.00;;;;5112380;28;20171;-73
2021/12/05 12:57:39;;;;;;;0.50;0.50;;;6.00;99.90;5.60;100001.00;;;;5097435;28;20180;-73
2021/12/05 13:00:20;;;;;;;0.50;0.50;;;6.00;99.90;5.80;100018.00;;;;5113934;28;20583;-73
2021/12/05 13:03:01;;;;;;;0.50;0.50;;;6.10;99.90;5.40;100016.00;;;;5096758;28;20189;-71
2021/12/05 13:11:23;;;;;;;25.83;2.33;;;6.40;99.90;6.20;100035.00;;;;5113709;28;20192;-71
2021/12/05 13:14:19;;;;;;;0.63;0.63;;;6.30;99.90;7.40;100051.00;;;;5096606;28;20188;-72
2021/12/05 13:16:50;;;;;;;0.60;0.60;;;6.90;99.90;8.00;100053.00;;;;5080408;28;20195;-73
2021/12/05 13:19:26;;;;;;;1.60;1.50;;;7.40;99.90;6.70;99993.00;;;;5113771;28;20582;-72
2021/12/05 13:22:07;;;;;;;0.80;0.80;;;7.20;99.90;6.10;100037.00;;;;5096427;28;20637;-71
2021/12/05 13:24:46;;;;;;;0.50;0.50;;;6.70;99.90;6.00;100010.00;;;;5096727;28;20182;-70
2021/12/05 13:27:31;;;;;;;0.50;0.50;;;6.40;99.90;6.30;100062.00;;;;5096967;28;20186;-71
2021/12/05 13:30:09;;;;;;;1.33;1.33;;;6.50;99.90;6.70;100050.00;;;;5096668;28;20278;-71
2021/12/05 13:32:45;;;;;;;0.60;0.60;;;6.70;99.90;6.70;100058.00;;;;5096456;28;20607;-71
2021/12/05 13:35:32;;;;;;;2.37;2.17;;;6.70;99.90;7.40;100037.00;;;;5094951;28;20250;-71
2021/12/05 13:38:25;;;;;;;2.93;2.67;;;7.10;99.90;6.60;100066.00;;;;5093007;28;20223;-71
2021/12/05 13:41:19;;;;;;;1.80;1.70;;;6.90;99.90;6.50;100069.00;;;;5092000;28;20271;-71
2021/12/05 13:44:02;;;;;;;1.83;1.70;;;6.80;99.90;7.30;100065.00;;;;5093361;28;20194;-71
2021/12/05 13:46:42;;;;;;;0.63;0.63;;;7.10;99.90;6.90;100064.00;;;;5092507;28;20652;-71
2021/12/05 13:49:38;;;;;;;1.00;1.00;;;7.10;99.90;7.10;100076.00;;;;5092860;28;20186;-70
2021/12/05 13:52:34;;;;;;;1.17;1.00;;;7.10;99.90;6.80;100076.00;;;;5092062;28;20210;-71
2021/12/05 13:55:39;;;;;;;0.50;0.50;;;7.10;99.90;6.80;100082.00;;;;5092409;28;20264;-71
2021/12/05 14:01:22;;;;;;;0.60;0.60;;;6.70;99.90;6.40;100089.00;;;;5093371;28;20177;-70
2021/12/05 14:04:16;;;;;;;0.50;0.50;;;6.60;99.90;7.20;100083.00;;;;5091355;28;20203;-70
2021/12/05 14:06:59;;;;;;;0.70;0.70;;;6.80;99.90;6.90;100081.00;;;;5092484;28;20190;-69
2021/12/05 14:09:48;;;;;;;0.70;0.70;;;6.80;99.90;6.90;100098.00;;;;5092649;28;20628;-70
2021/12/05 14:12:27;;;;;;;0.60;0.60;;;6.80;99.90;7.40;100099.00;;;;5074686;28;20291;-69
2021/12/05 14:14:59;;;;;;;0.50;0.50;;;7.00;99.90;7.30;100064.00;;;;5074891;28;20628;-70
2021/12/05 14:17:40;;;;;;;0.50;0.50;;;7.20;99.90;7.40;100110.00;;;;5097824;28;20234;-72
2021/12/05 14:20:20;;;;;;;0.87;0.87;;;7.10;99.90;7.00;100114.00;;;;5101112;28;20211;-67
2021/12/05 14:23:05;;;;;;;0.67;0.67;;;7.00;99.90;6.80;100117.00;;;;5101255;28;20258;-67
2021/12/05 14:25:39;;;;;;;0.60;0.60;;;6.80;99.90;7.40;100125.00;;;;5102392;28;20220;-71
2021/12/05 14:28:10;;;;;;;0.60;0.60;;;7.00;99.90;7.70;100131.00;;;;5103646;28;20195;-71
2021/12/05 14:30:43;;;;;;;0.70;0.70;;;7.10;99.90;7.00;100133.00;;;;5085501;28;20197;-72
2021/12/05 14:33:11;;;;;;;0.50;0.50;;;7.00;99.90;7.00;100136.00;;;;5081958;28;20641;-71
2021/12/05 14:35:54;;;;;;;0.50;0.50;;;6.90;99.90;6.60;100122.00;;;;5086540;28;20187;-72
2021/12/05 14:38:25;;;;;;;0.60;0.60;;;6.70;99.90;6.70;100132.00;;;;5084312;28;20192;-72
2021/12/05 14:40:55;;;;;;;0.60;0.60;;;6.60;99.90;6.90;100133.00;;;;5098596;28;20526;-73
2021/12/05 14:43:32;;;;;;;0.50;0.50;;;6.60;99.90;6.90;100114.00;;;;5083916;28;20195;-73
2021/12/05 14:46:01;;;;;;;0.50;0.50;;;6.70;99.90;6.70;100087.00;;;;5100425;28;20265;-72
2021/12/05 14:48:37;;;;;;;0.57;0.57;;;6.60;99.90;6.90;100144.00;;;;5083190;28;20191;-73
2021/12/05 14:51:11;;;;;;;0.77;0.77;;;6.60;99.90;6.80;100142.00;;;;5082444;28;20195;-72
2021/12/05 14:54:02;;;;;;;0.67;0.67;;;6.70;99.90;7.20;100151.00;;;;5107849;28;20570;-73
2021/12/05 14:56:36;;;;;;;0.70;0.70;;;6.70;99.90;7.00;100108.00;;;;5093481;28;20193;-72
2021/12/05 14:59:13;;;;;;;0.70;0.70;;;6.70;99.90;6.70;100149.00;;;;5092967;28;20177;-73
2021/12/05 15:01:54;;;;;;;3.00;2.33;;;6.70;99.90;6.50;100149.00;;;;5091103;28;20189;-73
2021/12/05 15:04:35;;;;;;;0.60;0.60;;;6.50;99.90;6.10;100156.00;;;;5091167;28;20258;-73
2021/12/05 15:07:04;;;;;;;0.50;0.50;;;6.40;99.90;6.00;100164.00;;;;5093018;28;20173;-72
2021/12/05 15:09:45;;;;;;;0.60;0.60;;;6.20;99.90;5.80;100171.00;;;;5092152;28;20172;-73
2021/12/05 15:12:20;;;;;;;1.00;1.00;;;6.10;99.90;5.80;100178.00;;;;5092879;28;20199;-73
2021/12/05 15:14:59;;;;;;;1.37;1.27;;;6.00;99.90;5.80;100189.00;;;;5090767;28;20184;-73
2021/12/05 15:17:34;;;;;;;0.90;0.90;;;6.00;99.90;5.80;100201.00;;;;5091345;28;20267;-72
2021/12/05 15:20:17;;;;;;;0.50;0.50;;;5.90;99.90;6.00;100207.00;;;;5095209;28;20189;-72
2021/12/05 15:22:53;;;;;;;0.73;0.73;;;6.00;99.90;6.30;100169.00;;;;5077831;28;20569;-72
2021/12/05 15:25:28;;;;;;;0.67;0.67;;;6.10;99.90;6.00;100218.00;;;;5094987;28;20181;-73
2021/12/05 15:28:03;;;;;;;0.70;0.70;;;6.10;99.90;6.90;100220.00;;;;5095222;28;20588;-73
2021/12/05 15:30:44;;;;;;;0.80;0.80;;;6.40;99.90;6.50;100217.00;;;;5096444;28;20179;-73
2021/12/05 15:33:21;;;;;;;0.80;0.80;;;6.40;99.90;6.80;100231.00;;;;5077177;28;20242;-73
2021/12/05 15:35:55;;;;;;;0.90;0.90;;;6.60;99.90;7.30;100238.00;;;;5095008;28;20195;-73
2021/12/05 15:38:34;;;;;;;0.80;0.80;;;6.70;99.90;7.60;100241.00;;;;5095231;28;20183;-73
2021/12/05 15:41:10;;;;;;;0.80;0.80;;;7.00;99.90;7.10;100246.00;;;;5103328;28;20248;-73
2021/12/05 15:43:41;;;;;;;0.90;0.90;;;6.90;99.90;6.70;100232.00;;;;5114508;28;20164;-73
2021/12/05 15:46:13;;;;;;;1.20;1.20;;;6.70;99.90;6.70;100246.00;;;;5115230;28;20548;-73
2021/12/05 15:48:49;;;;;;;0.90;0.90;;;6.50;99.90;6.60;100262.00;;;;5115784;28;20175;-73
2021/12/05 15:51:22;;;;;;;0.70;0.70;;;6.50;99.90;7.30;100271.00;;;;5114558;28;20172;-73
2021/12/05 15:53:55;;;;;;;0.80;0.80;;;6.60;99.90;6.50;100260.00;;;;5098521;28;20201;-73
2021/12/05 15:56:26;;;;;;;0.90;0.90;;;6.60;99.90;6.50;100267.00;;;;5100998;28;20219;-73
2021/12/05 15:59:02;;;;;;;0.90;0.90;;;6.40;99.90;6.80;100275.00;;;;5078081;28;20216;-72
2021/12/05 16:01:38;;;;;;;0.90;0.90;;;6.40;99.90;7.10;100274.00;;;;5094481;28;20167;-72
2021/12/05 16:04:20;;;;;;;0.90;0.90;;;6.60;99.90;7.20;100280.00;;;;5094500;28;20262;-73
2021/12/05 16:06:52;;;;;;;0.80;0.80;;;6.60;99.90;7.30;100274.00;;;;5077387;28;20649;-73
2021/12/05 16:09:25;;;;;;;0.80;0.80;;;6.70;99.90;7.40;100237.00;;;;5078173;28;20191;-73
2021/12/05 16:12:09;;;;;;;0.80;0.80;;;6.80;99.90;7.60;100231.00;;;;5099515;28;20250;-73
2021/12/05 16:14:44;;;;;;;0.70;0.70;;;6.90;99.90;7.20;100292.00;;;;5080544;28;20195;-72
2021/12/05 16:17:26;;;;;;;0.60;0.60;;;7.00;99.90;7.30;100277.00;;;;5086945;28;20206;-73
2021/12/05 16:20:22;;;;;;;0.70;0.70;;;7.00;99.90;7.00;100281.00;;;;5104422;28;20176;-73
2021/12/05 16:22:56;;;;;;;0.70;0.70;;;6.70;99.90;7.00;100295.00;;;;5104235;28;20271;-72
2021/12/05 16:25:28;;;;;;;0.80;0.80;;;6.60;99.90;6.70;100307.00;;;;5103094;28;20637;-73
2021/12/05 16:28:03;;;;;;;0.73;0.73;;;6.40;99.90;6.90;100315.00;;;;5103851;28;20194;-72
2021/12/05 16:30:39;;;;;;;1.33;1.33;;;6.40;99.90;7.10;100322.00;;;;5086893;28;20578;-72
2021/12/05 16:33:14;;;;;;;1.00;1.00;;;6.60;99.90;7.20;100320.00;;;;5102845;28;20307;-73
2021/12/05 16:35:51;;;;;;;2.60;2.50;;;6.60;99.90;7.00;100333.00;;;;5100785;28;20234;-73
2021/12/05 16:38:38;;;;;;;0.80;0.80;;;6.70;99.90;7.00;100316.00;;;;5103872;28;20231;-72
2021/12/05 16:41:28;;;;;;;0.80;0.80;;;6.60;99.90;6.70;100340.00;;;;5104310;28;20277;-72
2021/12/05 16:44:14;;;;;;;0.80;0.80;;;6.50;99.90;6.90;100340.00;;;;5102618;28;20197;-72
2021/12/05 16:46:48;;;;;;;0.80;0.80;;;6.40;99.90;7.00;100349.00;;;;5105479;28;20183;-72
2021/12/05 16:49:22;;;;;;;0.90;0.90;;;6.50;99.90;6.90;100301.00;;;;5084606;28;20199;-72
2021/12/05 16:52:08;;;;;;;1.57;1.53;;;6.60;99.90;6.90;100360.00;;;;5102347;28;20214;-72
2021/12/05 16:55:03;;;;;;;0.80;0.80;;;6.50;99.90;6.90;100354.00;;;;5087025;28;20205;-72
2021/12/05 16:57:44;;;;;;;1.00;1.00;;;6.70;99.90;6.80;100369.00;;;;5102795;28;20188;-72
2021/12/05 17:00:21;;;;;;;0.80;0.80;;;6.60;99.90;6.80;100371.00;;;;5099904;28;20667;-72
2021/12/05 17:02:56;;;;;;;0.90;0.90;;;6.50;99.90;6.70;100381.00;;;;5100257;28;20191;-73
2021/12/05 17:05:30;;;;;;;0.80;0.80;;;6.40;99.90;6.50;100360.00;;;;5098976;28;20614;-72
2021/12/05 17:08:22;;;;;;;0.80;0.80;;;6.30;99.90;6.70;100390.00;;;;5083281;28;20188;-72